Flight Track Log - Related Links

Times and Time Zones

All times are in EDT time to prevent confusion due to time zone crossing. See the XOJ722 flight status page for this flight to view local times or setup timezone preferences in your user account.


Time Position Orientation Groundspeed Altitude Reporting Facility
EDT Latitude Longitude Course Direction KTS MPH feet Rate Location/Type
Mon 01:51:00 PM 40.8167 -74.1167 250° West 212 244 1,500  Level New York TRACON
Mon 01:52:00 PM 40.8167 -74.2000 270° West 263 303 3,600 3,450 Climbing New York TRACON
Mon 01:53:00 PM 40.8167 -74.3000 270° West 261 300 8,400 3,200 Climbing New York TRACON
Mon 01:54:00 PM 40.8167 -74.4167 270° West 324 373 10,000 2,413 Climbing New York TRACON
Mon 01:56:00 PM 40.6031 -74.9538 250° West  Level Estimated
Mon 01:56:04 PM 40.8128 -74.7000 269° West 383 441 15,800  Level New York Center
Mon 01:57:05 PM 40.8086 -74.8258 268° West 383 441 17,000 595 Climbing New York Center
Mon 01:58:05 PM 40.8033 -74.9792 267° West 409 471 17,000 149 Level New York Center
Mon 01:59:06 PM 40.7764 -75.1447 258° West 419 482 17,300 1,017 Climbing New York Center
Mon 02:00:03 PM 40.7364 -75.2681 247° West 419 482 19,000 1,983 Climbing New York Center
Mon 02:01:04 PM 40.6664 -75.4058 236° Southwest 409 471 21,200 2,182 Climbing New York Center
Mon 02:02:04 PM 40.5931 -75.5239 231° Southwest 417 480 23,400 2,182 Climbing New York Center
Mon 02:03:05 PM 40.5194 -75.6442 231° Southwest 422 486 25,600 2,218 Climbing New York Center
Mon 02:04:03 PM 40.4475 -75.7672 232° Southwest 427 491 27,800 2,218 Climbing New York Center
Mon 02:05:04 PM 40.3736 -75.8872 231° Southwest 432 497 30,000 2,132 Climbing New York Center
Mon 02:06:04 PM 40.3022 -75.9964 229° Southwest 432 497 32,100 2,132 Climbing New York Center
Mon 02:07:05 PM 40.2258 -76.1183 231° Southwest 437 503 34,300 2,281 Climbing New York Center
Mon 02:08:05 PM 40.1467 -76.2536 233° Southwest 432 497 36,700 2,281 Climbing New York Center
Mon 02:09:06 PM 40.0781 -76.3811 235° Southwest 426 490 38,900 2,118 Climbing New York Center
Mon 02:10:04 PM 40.0242 -76.5069 241° Southwest 421 484 40,900 1,288 Climbing New York Center
Mon 02:12:17 PM 39.9389 -76.7983 249° West 410 472 43,000 653 Climbing Washington Center
Mon 02:13:17 PM 39.8956 -76.9653 251° West 449 517 43,000  Level Washington Center
Mon 02:14:16 PM 39.8539 -77.1214 251° West 456 525 43,000  Level Washington Center
Mon 02:15:17 PM 39.8122 -77.2825 251° West 456 525 43,000  Level Washington Center
Mon 02:16:17 PM 39.7703 -77.4433 251° West 469 540 43,000  Level Washington Center
Mon 02:17:18 PM 39.7261 -77.6069 251° West 474 545 43,000  Level Washington Center
Mon 02:18:18 PM 39.6817 -77.7675 250° West 479 551 43,000  Level Washington Center
Mon 02:19:15 PM 39.6389 -77.9306 251° West 479 551 43,000  Level Washington Center
Mon 02:20:16 PM 39.5961 -78.0961 252° West 484 557 43,000  Level Washington Center
Mon 02:21:17 PM 39.5486 -78.2614 250° West 484 557 43,000  Level Washington Center
Mon 02:22:18 PM 39.5075 -78.4239 252° West 484 557 43,000  Level Washington Center
Mon 02:23:16 PM 39.4597 -78.5861 249° West 484 557 43,000  Level Washington Center
Mon 02:24:17 PM 39.4161 -78.7481 251° West 484 557 43,000  Level Washington Center
Mon 02:25:18 PM 39.3700 -78.9097 250° West 484 557 43,000  Level Washington Center
Mon 02:26:16 PM 39.3258 -79.0689 250° West 479 551 43,000  Level Washington Center
Mon 02:27:16 PM 39.2794 -79.2328 250° West 479 551 43,000  Level Washington Center
Mon 02:28:17 PM 39.2394 -79.3783 251° West 479 551 43,000  Level Washington Center
Mon 02:29:17 PM 39.1925 -79.5444 250° West 479 551 43,000  Level Washington Center
Mon 02:30:18 PM 39.1456 -79.7025 249° West 479 551 43,000  Level Washington Center
Mon 02:31:18 PM 39.1000 -79.8658 250° West 484 557 43,000  Level Washington Center
Mon 02:32:16 PM 39.0525 -80.0261 249° West 484 557 43,000  Level Washington Center
Mon 02:33:59 PM 38.9658 -80.3017 248° West 490 564 43,000  Level Indianapolis Center
Mon 02:35:01 PM 38.9081 -80.4964 249° West 489 563 43,000  Level Indianapolis Center
Mon 02:36:03 PM 38.8600 -80.6581 249° West 484 557 43,000  Level Indianapolis Center
Mon 02:37:05 PM 38.8108 -80.8208 249° West 487 560 43,000  Level Indianapolis Center
Mon 02:38:07 PM 38.7608 -80.9819 248° West 486 559 43,000  Level Indianapolis Center
Mon 02:39:09 PM 38.7122 -81.1433 249° West 485 558 43,000  Level Indianapolis Center
Mon 02:40:11 PM 38.6625 -81.3042 248° West 483 556 43,000  Level Indianapolis Center
Mon 02:41:13 PM 38.6067 -81.4861 249° West 479 551 43,000  Level Indianapolis Center
Mon 02:42:15 PM 38.5619 -81.6314 249° West 480 552 43,000  Level Indianapolis Center
Mon 02:43:17 PM 38.5122 -81.7897 248° West 478 550 43,000  Level Indianapolis Center
Mon 02:44:19 PM 38.4639 -81.9453 248° West 472 543 43,000  Level Indianapolis Center
Mon 02:45:20 PM 38.4044 -82.1311 248° West 470 541 43,000  Level Indianapolis Center
Mon 02:46:22 PM 38.3547 -82.2892 248° West 477 549 43,000  Level Indianapolis Center
Mon 02:47:24 PM 38.3047 -82.4453 248° West 476 548 43,000  Level Indianapolis Center
Mon 02:48:26 PM 38.2525 -82.6069 248° West 479 551 43,000  Level Indianapolis Center
Mon 02:49:28 PM 38.2022 -82.7633 248° West 478 550 43,000  Level Indianapolis Center
Mon 02:50:30 PM 38.1508 -82.9183 247° West 478 550 43,000  Level Indianapolis Center
Mon 02:51:32 PM 38.1003 -83.0717 247° West 474 545 43,000  Level Indianapolis Center
Mon 02:52:34 PM 38.0414 -83.2519 248° West 474 545 43,000  Level Indianapolis Center
Mon 02:53:36 PM 37.9903 -83.4083 248° West 478 550 43,000  Level Indianapolis Center
Mon 02:54:38 PM 37.9378 -83.5625 247° West 479 551 43,000  Level Indianapolis Center
Mon 02:55:40 PM 37.8869 -83.7183 248° West 478 550 43,000  Level Indianapolis Center
Mon 02:56:41 PM 37.8344 -83.8717 247° West 474 545 43,000  Level Indianapolis Center
Mon 02:57:44 PM 37.7728 -84.0517 247° West 479 551 43,000  Level Indianapolis Center
Mon 02:58:45 PM 37.7200 -84.2081 247° West 483 556 43,000  Level Indianapolis Center
Mon 02:59:47 PM 37.6669 -84.3633 247° West 484 557 43,000  Level Indianapolis Center
Mon 03:00:49 PM 37.6133 -84.5197 247° West 486 559 43,000  Level Indianapolis Center
Mon 03:01:51 PM 37.5578 -84.6769 246° West 492 566 43,000  Level Indianapolis Center
Mon 03:02:53 PM 37.5025 -84.8344 246° West 494 568 43,000  Level Indianapolis Center
Mon 03:03:54 PM 37.4386 -85.0189 246° West 494 568 43,000  Level Indianapolis Center
Mon 03:04:56 PM 37.3844 -85.1747 246° West 490 564 43,000  Level Indianapolis Center
Mon 03:05:58 PM 37.3286 -85.3294 246° West 488 562 43,000  Level Indianapolis Center
Mon 03:07:00 PM 37.2742 -85.4850 246° West 487 560 43,000  Level Indianapolis Center
Mon 03:08:02 PM 37.2211 -85.6372 246° West 489 563 43,000  Level Indianapolis Center
Mon 03:09:04 PM 37.1561 -85.8158 246° West 482 555 43,000  Level Indianapolis Center
Mon 03:09:57 PM 37.1078 -85.9533 246° West 489 563 43,000  Level Memphis Center
Mon 03:10:57 PM 37.0528 -86.1097 246° West 484 557 43,000  Level Memphis Center
Mon 03:11:57 PM 36.9956 -86.2608 245° Southwest 484 557 43,000  Level Memphis Center
Mon 03:12:57 PM 36.9358 -86.4144 244° Southwest 489 563 43,000  Level Memphis Center
Mon 03:13:57 PM 36.8697 -86.5628 241° Southwest 495 570 43,000 -300 Level Memphis Center
Mon 03:14:57 PM 36.8053 -86.7136 242° Southwest 500 575 42,400 -1,550 Descending Memphis Center
Mon 03:15:57 PM 36.7428 -86.8589 242° Southwest 487 560 39,900 -2,500 Descending Memphis Center
Mon 03:16:57 PM 36.6781 -87.0039 241° Southwest 487 560 37,400 -2,450 Descending Memphis Center
Mon 03:17:57 PM 36.6092 -87.1542 240° Southwest 499 574 35,000 -1,200 Descending Memphis Center
Mon 03:18:57 PM 36.5400 -87.3094 241° Southwest 504 580 35,000  Level Memphis Center
Mon 03:19:58 PM 36.4731 -87.4642 242° Southwest 509 586 35,000  Level Memphis Center
Mon 03:20:57 PM 36.4033 -87.6161 240° Southwest 509 586 35,000  Level Memphis Center
Mon 03:21:57 PM 36.3339 -87.7706 241° Southwest 509 586 35,000  Level Memphis Center
Mon 03:22:57 PM 36.2719 -87.9064 241° Southwest 509 586 35,000 -700 Level Memphis Center
Mon 03:23:57 PM 36.2058 -88.0550 241° Southwest 504 580 33,600 -1,750 Descending Memphis Center
Mon 03:24:57 PM 36.1378 -88.2033 240° Southwest 480 552 31,500 700 Descending Memphis Center
Mon 03:25:57 PM 36.0753 -88.3333 239° Southwest 460 529 35,000 -2,300 Climbing Memphis Center
Mon 03:26:57 PM 36.0147 -88.4631 240° Southwest 452 520 26,900 -5,150 Descending Memphis Center
Mon 03:27:57 PM 35.9561 -88.5875 240° Southwest 440 506 24,700 -2,200 Descending Memphis Center
Mon 03:28:57 PM 35.9014 -88.7067 240° Southwest 425 489 22,500 -2,150 Descending Memphis Center
Mon 03:29:57 PM 35.8467 -88.8256 240° Southwest 412 474 20,400 -2,050 Descending Memphis Center
Mon 03:30:57 PM 35.7917 -88.9342 238° Southwest 394 453 18,400 -1,950 Descending Memphis Center
Mon 03:31:57 PM 35.7344 -89.0400 236° Southwest 387 445 16,500 -1,750 Descending Memphis Center
Mon 03:32:57 PM 35.6833 -89.1275 234° Southwest 368 423 14,900 -1,800 Descending Memphis Center
Mon 03:33:57 PM 35.6194 -89.2128 227° Southwest 344 396 12,900 -1,800 Descending Memphis Center
Mon 03:34:57 PM 35.5617 -89.2878 227° Southwest 314 361 11,300 -1,400 Descending Memphis Center
Mon 03:35:57 PM 35.5039 -89.3650 227° Southwest 295 339 10,100 -1,050 Descending Memphis Center
Mon 03:36:57 PM 35.4650 -89.4419 238° Southwest 283 326 9,200 -1,350 Descending Memphis Center
Mon 03:37:57 PM 35.4258 -89.5136 236° Southwest 272 313 7,400 -1,800 Descending Memphis Center
Mon 03:38:57 PM 35.3908 -89.5956 242° Southwest 272 313 5,600 -1,700 Descending Memphis Center
Mon 03:39:57 PM 35.3558 -89.6619 237° Southwest 259 298 4,000 -800 Descending Memphis Center
Mon 03:40:57 PM 35.3228 -89.7258 238° Southwest 235 270 4,000 -250 Level Memphis Center
Mon 03:41:57 PM 35.2939 -89.7897 241° Southwest 223 257 3,500 -500 Descending Memphis Center
Mon 03:42:57 PM 35.2628 -89.8536 239° Southwest 223 257 3,000 -248 Descending Memphis Center
Mon 03:43:58 PM 35.2403 -89.9072 243° Southwest 200 230 3,000  Level Memphis Center
Mon 03:44:57 PM 35.2153 -89.9556 238° Southwest 183 211 3,000  Level Memphis Center
Mon 03:45:17 PM 35.2000 -89.9667 211° Southwest 167 192 3,000 -338 Level KMEM
Mon 03:46:08 PM 35.1667 -89.9667 180° South 173 199 2,600 -733 Descending KMEM
Mon 03:47:28 PM 35.1000 -89.9667 180° South 167 192 1,400 -781 Descending KMEM
Mon 03:48:34 PM 35.0667 -89.9667 180° South 121 139 700 -636 Descending KMEM
Mon 03:50:00 PM 35.0424 -89.9767 164° South  Level Estimated
Mon 03:57:00 PM 35.0424 -89.9767 345° North  Level Estimated
Mon 03:58:00 PM 35.0424 -89.9767 345° North  Level Estimated
Mon 03:59:00 PM 35.0424 -89.9767 345° North  Level Estimated
Mon 04:00:00 PM 35.0424 -89.9767 345° North  Level Estimated
Mon 04:01:00 PM 35.0424 -89.9767 345° North  Level Estimated
Mon 04:02:00 PM 35.0424 -89.9767 345° North  Level Estimated
Mon 04:03:00 PM 35.0424 -89.9767 345° North  Level Estimated
Mon 04:04:00 PM 35.0424 -89.9767 345° North  Level Estimated
Mon 04:05:00 PM 35.0424 -89.9767 345° North  Level Estimated
Mon 04:06:00 PM 35.0424 -89.9767 345° North  Level Estimated
Mon 04:07:00 PM 35.0424 -89.9767 345° North  Level Estimated
Mon 04:08:00 PM 35.0424 -89.9767 345° North  Level Estimated
Mon 04:09:00 PM 35.0424 -89.9767 345° North  Level Estimated
Mon 04:10:00 PM 35.0424 -89.9767 345° North  Level Estimated
Mon 04:11:00 PM 35.0424 -89.9767 345° North  Level Estimated

Login

Don't have an account? Register now (free) for customized features, flight alerts, and more!